createdAt,value
2018-12-14T00:02:14.366Z,101714.97
2018-12-14T00:04:45.635Z,101706.92
2018-12-14T00:07:16.901Z,101711.52
2018-12-14T00:09:48.118Z,101712.48
2018-12-14T00:12:32.454Z,101716.02
2018-12-14T00:15:05.678Z,101713.12
2018-12-14T00:17:44.666Z,101714.05
2018-12-14T00:20:16.649Z,101705.51
2018-12-14T00:22:55.174Z,101706.76
2018-12-14T00:25:29.443Z,101708.54
2018-12-14T00:28:07.177Z,101721.26
2018-12-14T00:33:39.847Z,101724.63
2018-12-14T00:36:19.015Z,101723.88
2018-12-14T00:38:57.105Z,101719.16
2018-12-14T00:41:35.401Z,101726.16
2018-12-14T00:44:13.331Z,101725.63
2018-12-14T00:46:45.774Z,101726.27
2018-12-14T00:49:25.420Z,101728.94
2018-12-14T00:51:59.531Z,101726.27
2018-12-14T00:54:31.968Z,101726.41
2018-12-14T00:57:03.039Z,101727.14
2018-12-14T00:59:33.014Z,101724.56
2018-12-14T01:02:05.930Z,101725.98
2018-12-14T01:04:44.434Z,101731.38
2018-12-14T01:07:19.551Z,101732.55
2018-12-14T01:09:59.469Z,101731.53
2018-12-14T01:12:30.603Z,101735.11
2018-12-14T01:15:05.016Z,101740.52
2018-12-14T01:17:42.942Z,101736.44
2018-12-14T01:20:21.841Z,101740.30
2018-12-14T01:23:00.899Z,101743.44
2018-12-14T01:25:32.390Z,101738.31
2018-12-14T01:28:10.992Z,101740.81
2018-12-14T01:30:42.239Z,101741.59
2018-12-14T01:33:14.412Z,101741.06
2018-12-14T01:38:50.174Z,101744.89
2018-12-14T01:41:23.659Z,101743.75
2018-12-14T01:43:57.704Z,101740.39
2018-12-14T01:46:28.936Z,101741.95
2018-12-14T01:48:58.890Z,101743.20
2018-12-14T01:51:36.971Z,101744.81
2018-12-14T01:54:15.670Z,101744.06
2018-12-14T01:56:46.765Z,101737.35
2018-12-14T01:59:25.270Z,101733.53
2018-12-14T02:02:04.429Z,101737.81
2018-12-14T02:04:37.205Z,101735.53
2018-12-14T02:07:15.216Z,101732.27
2018-12-14T02:09:46.664Z,101733.84
2018-12-14T02:12:17.318Z,101734.19
2018-12-14T02:14:48.398Z,101731.08
2018-12-14T02:17:26.165Z,101728.81
2018-12-14T02:20:04.926Z,101728.61
2018-12-14T02:22:34.538Z,101728.84
2018-12-14T02:25:05.677Z,101720.58
2018-12-14T02:27:44.134Z,101725.41
2018-12-14T02:30:28.040Z,101718.36
2018-12-14T02:33:06.059Z,101717.08
2018-12-14T02:35:39.465Z,101724.02
2018-12-14T02:38:19.037Z,101721.93
2018-12-14T02:40:48.996Z,101718.98
2018-12-14T02:46:14.253Z,101718.30
2018-12-14T02:48:47.179Z,101713.05
2018-12-14T02:51:18.351Z,101714.92
2018-12-14T02:53:56.960Z,101709.58
2018-12-14T02:56:29.535Z,101711.94
2018-12-14T03:01:55.102Z,101710.00
2018-12-14T03:04:24.997Z,101708.91
2018-12-14T03:06:59.666Z,101711.43
2018-12-14T03:09:29.104Z,101708.84
2018-12-14T03:11:58.876Z,101717.13
2018-12-14T03:14:29.974Z,101716.41
2018-12-14T03:17:07.760Z,101714.77
2018-12-14T03:19:37.525Z,101713.39
2018-12-14T03:22:11.846Z,101718.72
2018-12-14T03:24:51.094Z,101715.89
2018-12-14T03:27:30.221Z,101715.25
2018-12-14T03:30:02.754Z,101721.81
2018-12-14T03:32:41.622Z,101720.81
2018-12-14T03:35:12.702Z,101719.88
2018-12-14T03:37:51.487Z,101711.66
2018-12-14T03:40:23.896Z,101709.77
2018-12-14T03:42:59.617Z,101705.56
2018-12-14T03:45:30.747Z,101707.66
2018-12-14T03:48:02.118Z,101702.11
2018-12-14T03:50:47.484Z,101702.50
2018-12-14T03:53:17.100Z,101696.09
2018-12-14T03:55:51.254Z,101698.52
2018-12-14T03:58:22.556Z,101696.72
2018-12-14T04:01:01.248Z,101694.52
2018-12-14T04:03:39.284Z,101704.61
2018-12-14T04:06:10.701Z,101707.90
2018-12-14T04:08:48.457Z,101711.13
2018-12-14T04:11:19.659Z,101714.87
2018-12-14T04:13:53.592Z,101716.64
2018-12-14T04:16:24.741Z,101721.48
2018-12-14T04:18:59.153Z,101723.80
2018-12-14T04:21:34.614Z,101710.33
2018-12-14T04:24:19.997Z,101715.84
2018-12-14T04:26:51.523Z,101716.80
2018-12-14T04:29:29.951Z,101714.14
2018-12-14T04:32:07.660Z,101709.58
2018-12-14T04:34:45.348Z,101718.46
2018-12-14T04:37:23.188Z,101721.42
2018-12-14T04:43:01.691Z,101719.33
2018-12-14T04:45:34.234Z,101723.30
2018-12-14T04:48:05.645Z,101721.55
2018-12-14T04:50:44.312Z,101732.13
2018-12-14T04:53:23.436Z,101727.55
2018-12-14T04:55:55.625Z,101729.25
2018-12-14T05:01:30.177Z,101719.22
2018-12-14T05:04:02.225Z,101721.77
2018-12-14T05:06:33.883Z,101718.86
2018-12-14T05:09:05.232Z,101717.98
2018-12-14T05:11:44.442Z,101719.61
2018-12-14T05:14:19.717Z,101727.16
2018-12-14T05:16:54.662Z,101718.09
2018-12-14T05:19:33.672Z,101721.21
2018-12-14T05:22:09.710Z,101727.75
2018-12-14T05:24:42.657Z,101721.21
2018-12-14T05:27:22.239Z,101728.52
2018-12-14T05:30:11.274Z,101726.47
2018-12-14T05:35:35.424Z,101730.86
2018-12-14T05:41:00.414Z,101728.23
2018-12-14T05:43:31.454Z,101730.92
2018-12-14T05:46:05.397Z,101724.50
2018-12-14T05:48:41.423Z,101722.78
2018-12-14T05:51:16.385Z,101727.19
2018-12-14T05:53:55.288Z,101730.22
2018-12-14T05:56:27.126Z,101734.84
2018-12-14T05:59:06.170Z,101727.55
2018-12-14T06:01:38.389Z,101728.70
2018-12-14T06:04:15.011Z,101736.33
2018-12-14T06:06:54.094Z,101739.56
2018-12-14T06:09:34.943Z,101746.33
2018-12-14T06:15:00.477Z,101747.58
2018-12-14T06:17:33.678Z,101750.45
2018-12-14T06:20:05.007Z,101751.42
2018-12-14T06:22:44.324Z,101753.42
2018-12-14T06:25:16.875Z,101764.23
2018-12-14T06:27:56.331Z,101755.95
2018-12-14T06:30:28.754Z,101763.98
2018-12-14T06:32:59.894Z,101765.44
2018-12-14T06:35:31.864Z,101758.23
2018-12-14T06:38:03.085Z,101768.67
2018-12-14T06:40:42.005Z,101767.80
2018-12-14T06:43:16.824Z,101772.30
2018-12-14T06:45:48.910Z,101771.25
2018-12-14T06:48:21.930Z,101779.37
2018-12-14T06:51:01.859Z,101774.16
2018-12-14T06:53:40.656Z,101782.52
2018-12-14T06:56:13.156Z,101784.36
2018-12-14T06:58:46.421Z,101785.18
2018-12-14T07:01:19.139Z,101793.17
2018-12-14T07:06:46.532Z,101796.61
2018-12-14T07:09:25.387Z,101800.16
2018-12-14T07:11:58.606Z,101805.59
2018-12-14T07:14:37.503Z,101801.53
2018-12-14T07:17:16.537Z,101808.98
2018-12-14T07:19:48.644Z,101807.86
2018-12-14T07:22:28.236Z,101812.98
2018-12-14T07:25:00.538Z,101810.28
2018-12-14T07:27:31.275Z,101817.69
2018-12-14T07:30:10.093Z,101815.92
2018-12-14T07:32:42.435Z,101819.31
2018-12-14T07:35:13.238Z,101830.59
2018-12-14T07:37:46.518Z,101831.28
2018-12-14T07:40:27.920Z,101832.80
2018-12-14T07:43:07.221Z,101828.75
2018-12-14T07:45:38.499Z,101826.64
2018-12-14T07:48:18.197Z,101827.62
2018-12-14T07:50:50.345Z,101836.98
2018-12-14T07:56:16.463Z,101844.80
2018-12-14T07:58:55.669Z,101843.73
2018-12-14T08:01:34.559Z,101849.57
2018-12-14T08:04:06.952Z,101848.80
2018-12-14T08:06:54.071Z,101853.59
2018-12-14T08:09:30.070Z,101856.02
2018-12-14T08:12:10.670Z,101851.13
2018-12-14T08:14:43.190Z,101861.41
2018-12-14T08:17:14.138Z,101854.37
2018-12-14T08:19:53.114Z,101856.09
2018-12-14T08:22:25.376Z,101853.61
2018-12-14T08:24:56.139Z,101860.06
2018-12-14T08:27:36.590Z,101866.38
2018-12-14T08:30:10.007Z,101873.79
2018-12-14T08:32:49.631Z,101864.45
2018-12-14T08:35:20.702Z,101872.03
2018-12-14T08:37:54.596Z,101878.59
2018-12-14T08:40:33.796Z,101871.84
2018-12-14T08:43:06.014Z,101874.56
2018-12-14T08:48:37.562Z,101882.91
2018-12-14T08:51:16.593Z,101884.45
2018-12-14T08:53:47.063Z,101888.61
2018-12-14T08:56:18.906Z,101883.09
2018-12-14T08:58:49.953Z,101886.98
2018-12-14T09:01:27.674Z,101888.68
2018-12-14T09:04:06.855Z,101895.16
2018-12-14T09:06:43.105Z,101893.39
2018-12-14T09:09:15.763Z,101896.56
2018-12-14T09:11:47.878Z,101906.90
2018-12-14T09:14:26.784Z,101906.03
2018-12-14T09:16:58.006Z,101912.05
2018-12-14T09:19:37.671Z,101910.76
2018-12-14T09:22:09.894Z,101913.66
2018-12-14T09:24:49.405Z,101917.34
2018-12-14T09:27:27.244Z,101913.88
2018-12-14T09:30:07.650Z,101916.09
2018-12-14T09:32:50.156Z,101905.16
2018-12-14T09:35:25.394Z,101912.33
2018-12-14T09:38:04.614Z,101918.35
2018-12-14T09:40:34.274Z,101918.45
2018-12-14T09:43:13.870Z,101917.13
2018-12-14T09:45:46.181Z,101919.81
2018-12-14T09:48:18.361Z,101917.33
2018-12-14T09:50:57.944Z,101921.17
2018-12-14T09:53:30.173Z,101920.71
2018-12-14T09:56:01.002Z,101917.20
2018-12-14T09:58:32.053Z,101915.13
2018-12-14T10:01:11.731Z,101917.17
2018-12-14T10:03:43.054Z,101919.19
2018-12-14T10:06:15.859Z,101920.67
2018-12-14T10:08:55.124Z,101912.55
2018-12-14T10:11:37.342Z,101913.91
2018-12-14T10:14:12.870Z,101921.62
2018-12-14T10:16:44.296Z,101912.55
2018-12-14T10:19:16.346Z,101916.56
2018-12-14T10:24:48.784Z,101918.03
2018-12-14T10:27:27.816Z,101910.30
2018-12-14T10:30:08.591Z,101914.91
2018-12-14T10:32:48.745Z,101906.10
2018-12-14T10:35:21.030Z,101906.10
2018-12-14T10:37:50.919Z,101908.55
2018-12-14T10:40:20.853Z,101895.50
2018-12-14T10:42:59.523Z,101890.31
2018-12-14T10:45:31.987Z,101893.16
2018-12-14T10:48:11.370Z,101889.05
2018-12-14T10:50:50.028Z,101885.83
2018-12-14T10:53:29.014Z,101886.85
2018-12-14T10:56:00.230Z,101889.37
2018-12-14T10:58:30.104Z,101883.33
2018-12-14T11:01:07.769Z,101879.91
2018-12-14T11:03:45.846Z,101882.55
2018-12-14T11:06:18.066Z,101877.50
2018-12-14T11:08:56.129Z,101880.23
2018-12-14T11:11:27.415Z,101875.95
2018-12-14T11:13:57.269Z,101869.13
2018-12-14T11:16:30.318Z,101870.98
2018-12-14T11:19:01.066Z,101868.89
2018-12-14T11:21:39.493Z,101871.66
2018-12-14T11:24:17.528Z,101872.27
2018-12-14T11:26:49.757Z,101867.36
2018-12-14T11:29:20.891Z,101878.79
2018-12-14T11:32:02.263Z,101874.92
2018-12-14T11:34:42.996Z,101873.95
2018-12-14T11:37:14.420Z,101876.97
2018-12-14T11:39:54.753Z,101868.70
2018-12-14T11:42:32.789Z,101867.78
2018-12-14T11:45:11.862Z,101871.73
2018-12-14T11:47:49.715Z,101871.20
2018-12-14T11:50:27.745Z,101869.06
2018-12-14T11:53:01.875Z,101867.02
2018-12-14T11:55:33.116Z,101868.31
2018-12-14T11:58:07.069Z,101874.96
2018-12-14T12:00:38.616Z,101869.39
2018-12-14T12:03:16.972Z,101870.76
2018-12-14T12:05:48.367Z,101863.87
2018-12-14T12:08:28.087Z,101868.23
2018-12-14T12:10:58.755Z,101869.01
2018-12-14T12:13:37.157Z,101866.58
2018-12-14T12:16:11.275Z,101866.97
2018-12-14T12:18:49.053Z,101868.45
2018-12-14T12:21:23.860Z,101869.52
2018-12-14T12:23:55.456Z,101866.67
2018-12-14T12:26:27.004Z,101870.74
2018-12-14T12:29:06.531Z,101876.16
2018-12-14T12:31:37.806Z,101870.87
2018-12-14T12:34:19.095Z,101871.70
2018-12-14T12:36:50.627Z,101871.20
2018-12-14T12:39:29.167Z,101860.63
2018-12-14T12:42:07.237Z,101873.20
2018-12-14T12:44:45.168Z,101867.68
2018-12-14T12:47:16.459Z,101878.28
2018-12-14T12:49:48.778Z,101880.94
2018-12-14T12:52:20.022Z,101872.84
2018-12-14T12:54:51.453Z,101874.77
2018-12-14T12:57:22.646Z,101872.50
2018-12-14T13:00:01.284Z,101872.11
2018-12-14T13:02:35.196Z,101875.67
2018-12-14T13:05:08.139Z,101876.09
2018-12-14T13:07:39.930Z,101874.45
2018-12-14T13:10:15.292Z,101869.79
2018-12-14T13:12:54.969Z,101871.30
2018-12-14T13:15:34.259Z,101869.88
2018-12-14T13:18:05.703Z,101871.86
2018-12-14T13:20:44.190Z,101878.97
2018-12-14T13:23:17.686Z,101879.05
2018-12-14T13:25:47.658Z,101879.02
2018-12-14T13:28:25.651Z,101878.69
2018-12-14T13:31:04.389Z,101881.78
2018-12-14T13:33:39.174Z,101883.48
2018-12-14T13:36:11.018Z,101882.16
2018-12-14T13:38:51.458Z,101889.55
2018-12-14T13:41:30.387Z,101887.22
2018-12-14T13:44:09.360Z,101891.13
2018-12-14T13:46:43.398Z,101897.22
2018-12-14T13:49:22.550Z,101893.11
2018-12-14T13:52:01.465Z,101897.39
2018-12-14T13:54:36.298Z,101893.20
2018-12-14T13:57:07.392Z,101898.17
2018-12-14T13:59:50.691Z,101906.32
2018-12-14T14:02:28.801Z,101917.66
2018-12-14T14:05:02.916Z,101912.59
2018-12-14T14:07:40.615Z,101909.88
2018-12-14T14:10:19.312Z,101919.85
2018-12-14T14:12:57.084Z,101923.62
2018-12-14T14:15:28.377Z,101928.84
2018-12-14T14:18:08.002Z,101935.59
2018-12-14T14:20:39.255Z,101938.25
2018-12-14T14:23:12.058Z,101947.08
2018-12-14T14:25:43.025Z,101944.83
2018-12-14T14:28:26.006Z,101945.13
2018-12-14T14:31:05.533Z,101947.82
2018-12-14T14:33:44.628Z,101955.09
2018-12-14T14:36:16.942Z,101949.07
2018-12-14T14:38:49.736Z,101953.89
2018-12-14T14:41:28.298Z,101955.22
2018-12-14T14:44:01.768Z,101949.23
2018-12-14T14:46:32.544Z,101953.42
2018-12-14T14:49:07.108Z,101958.69
2018-12-14T14:51:38.843Z,101957.31
2018-12-14T14:54:11.088Z,101959.31
2018-12-14T14:56:43.848Z,101958.66
2018-12-14T14:59:24.349Z,101959.13
2018-12-14T15:01:56.675Z,101966.38
2018-12-14T15:04:36.395Z,101969.59
2018-12-14T15:07:14.802Z,101968.57
2018-12-14T15:09:53.829Z,101968.38
2018-12-14T15:12:32.742Z,101970.38
2018-12-14T15:15:06.606Z,101972.23
2018-12-14T15:17:44.966Z,101972.32
2018-12-14T15:20:24.698Z,101971.89
2018-12-14T15:22:55.914Z,101978.75
2018-12-14T15:25:27.808Z,101974.80
2018-12-14T15:28:01.754Z,101981.27
2018-12-14T15:30:37.729Z,101988.68
2018-12-14T15:33:18.464Z,101980.92
2018-12-14T15:35:56.566Z,101985.77
2018-12-14T15:38:28.653Z,101994.78
2018-12-14T15:41:09.099Z,102000.52
2018-12-14T15:43:47.992Z,102000.83
2018-12-14T15:46:17.495Z,101999.39
2018-12-14T15:48:49.671Z,102001.49
2018-12-14T15:51:19.583Z,101999.20
2018-12-14T15:54:00.275Z,102002.51
2018-12-14T15:56:32.528Z,101999.61
2018-12-14T16:02:05.950Z,102009.63
2018-12-14T16:07:31.951Z,102013.19
2018-12-14T16:10:05.704Z,102010.75
2018-12-14T16:12:44.915Z,102005.17
2018-12-14T16:15:20.235Z,102009.09
2018-12-14T16:17:58.290Z,102008.78
2018-12-14T16:20:40.406Z,102009.80
2018-12-14T16:26:06.717Z,102014.23
2018-12-14T16:28:46.691Z,102008.00
2018-12-14T16:31:21.731Z,102014.05
2018-12-14T16:34:00.550Z,102012.91
2018-12-14T16:36:33.475Z,102012.71
2018-12-14T16:39:14.091Z,102016.38
2018-12-14T16:41:45.261Z,102011.09
2018-12-14T16:44:23.162Z,102021.34
2018-12-14T16:46:54.445Z,102015.44
2018-12-14T16:49:33.047Z,102009.81
2018-12-14T16:52:12.173Z,102017.60
2018-12-14T16:54:50.795Z,102014.75
2018-12-14T16:57:29.999Z,102025.66
2018-12-14T17:00:08.266Z,102030.44
2018-12-14T17:02:50.642Z,102036.27
2018-12-14T17:05:23.208Z,102032.66
2018-12-14T17:07:56.147Z,102030.85
2018-12-14T17:10:26.158Z,102038.84
2018-12-14T17:12:56.885Z,102038.89
2018-12-14T17:15:33.174Z,102038.49
2018-12-14T17:18:06.798Z,102037.71
2018-12-14T17:20:40.217Z,102039.77
2018-12-14T17:23:11.067Z,102035.95
2018-12-14T17:25:43.120Z,102044.45
2018-12-14T17:28:21.923Z,102045.06
2018-12-14T17:30:55.791Z,102049.92
2018-12-14T17:33:27.938Z,102056.46
2018-12-14T17:35:58.841Z,102059.39
2018-12-14T17:38:32.879Z,102054.41
2018-12-14T17:41:11.960Z,102057.98
2018-12-14T17:46:38.593Z,102063.81
2018-12-14T17:49:09.625Z,102071.73
2018-12-14T17:52:02.476Z,102065.84
2018-12-14T17:54:41.351Z,102071.89
2018-12-14T18:00:13.416Z,102075.42
2018-12-14T18:02:44.707Z,102075.42
2018-12-14T18:05:15.613Z,102076.51
2018-12-14T18:10:48.106Z,102071.50
2018-12-14T18:16:14.216Z,102077.73
2018-12-14T18:18:53.578Z,102081.76
2018-12-14T18:21:31.514Z,102080.48
2018-12-14T18:24:16.990Z,102084.72
2018-12-14T18:26:52.799Z,102083.41
2018-12-14T18:29:31.561Z,102093.36
2018-12-14T18:32:17.269Z,102092.72
2018-12-14T18:34:49.864Z,102082.77
2018-12-14T18:37:29.554Z,102087.78
2018-12-14T18:40:00.630Z,102099.02
2018-12-14T18:42:31.562Z,102095.86
2018-12-14T18:45:05.056Z,102094.34
2018-12-14T18:47:42.837Z,102103.58
2018-12-14T18:50:14.946Z,102096.81
2018-12-14T18:52:53.443Z,102098.59
2018-12-14T18:55:32.134Z,102103.63
2018-12-14T18:58:08.102Z,102100.09
2018-12-14T19:00:46.824Z,102109.80
2018-12-14T19:03:19.035Z,102110.09
2018-12-14T19:05:51.898Z,102114.53
2018-12-14T19:08:23.069Z,102122.33
2018-12-14T19:11:01.016Z,102116.49
2018-12-14T19:13:41.169Z,102124.99
2018-12-14T19:16:12.345Z,102123.05
2018-12-14T19:18:51.158Z,102123.59
2018-12-14T19:21:35.610Z,102131.37
2018-12-14T19:24:15.024Z,102131.58
2018-12-14T19:26:47.231Z,102134.63
2018-12-14T19:29:19.329Z,102135.61
2018-12-14T19:31:59.313Z,102144.34
2018-12-14T19:34:34.244Z,102144.38
2018-12-14T19:37:07.799Z,102153.35
2018-12-14T19:39:42.725Z,102146.24
2018-12-14T19:42:20.587Z,102145.37
2018-12-14T19:44:53.934Z,102145.19
2018-12-14T19:47:25.138Z,102140.88
2018-12-14T19:50:05.087Z,102138.21
2018-12-14T19:52:43.879Z,102142.05
2018-12-14T19:55:16.150Z,102144.56
2018-12-14T19:57:55.266Z,102140.91
2018-12-14T20:00:33.226Z,102135.64
2018-12-14T20:03:12.413Z,102138.02
2018-12-14T20:05:46.499Z,102138.72
2018-12-14T20:08:25.656Z,102140.30
2018-12-14T20:11:03.517Z,102139.66
2018-12-14T20:13:36.718Z,102138.47
2018-12-14T20:16:12.696Z,102138.69
2018-12-14T20:18:50.243Z,102138.47
2018-12-14T20:21:24.103Z,102137.28
2018-12-14T20:24:02.174Z,102139.64
2018-12-14T20:26:34.656Z,102127.94
2018-12-14T20:29:06.754Z,102134.41
2018-12-14T20:31:54.810Z,102135.37
2018-12-14T20:34:28.625Z,102134.58
2018-12-14T20:36:59.796Z,102130.45
2018-12-14T20:39:38.620Z,102133.81
2018-12-14T20:42:09.949Z,102128.53
2018-12-14T20:44:47.960Z,102130.39
2018-12-14T20:47:24.024Z,102131.94
2018-12-14T20:49:57.846Z,102131.20
2018-12-14T20:52:36.803Z,102126.16
2018-12-14T20:55:08.295Z,102127.00
2018-12-14T20:57:40.155Z,102130.16
2018-12-14T21:00:12.102Z,102134.33
2018-12-14T21:02:52.813Z,102133.98
2018-12-14T21:05:26.835Z,102136.52
2018-12-14T21:08:09.085Z,102129.63
2018-12-14T21:10:48.371Z,102128.05
2018-12-14T21:13:19.618Z,102139.10
2018-12-14T21:15:50.886Z,102136.27
2018-12-14T21:18:28.792Z,102135.58
2018-12-14T21:21:07.582Z,102135.27
2018-12-14T21:23:43.394Z,102136.20
2018-12-14T21:26:15.532Z,102133.86
2018-12-14T21:28:54.353Z,102140.56
2018-12-14T21:31:33.301Z,102138.73
2018-12-14T21:34:12.432Z,102132.61
2018-12-14T21:36:43.655Z,102133.66
2018-12-14T21:39:22.483Z,102130.11
2018-12-14T21:41:54.635Z,102125.90
2018-12-14T21:44:34.146Z,102128.64
2018-12-14T21:47:07.385Z,102131.44
2018-12-14T21:49:46.829Z,102126.83
2018-12-14T21:52:25.685Z,102128.33
2018-12-14T21:54:56.670Z,102124.93
2018-12-14T21:57:37.065Z,102117.08
2018-12-14T22:00:16.041Z,102119.44
2018-12-14T22:02:53.778Z,102118.37
2018-12-14T22:05:26.174Z,102117.68
2018-12-14T22:08:04.761Z,102116.33
2018-12-14T22:10:43.857Z,102110.32
2018-12-14T22:13:17.634Z,102112.78
2018-12-14T22:15:49.991Z,102117.68
2018-12-14T22:18:29.820Z,102117.23
2018-12-14T22:21:04.082Z,102113.44
2018-12-14T22:23:43.202Z,102114.43
2018-12-14T22:26:18.236Z,102112.38
2018-12-14T22:28:50.539Z,102117.25
2018-12-14T22:31:30.331Z,102116.74
2018-12-14T22:34:09.786Z,102122.25
2018-12-14T22:36:44.095Z,102119.94
2018-12-14T22:42:10.072Z,102123.63
2018-12-14T22:44:49.902Z,102124.08
2018-12-14T22:47:22.808Z,102119.95
2018-12-14T22:50:01.757Z,102127.14
2018-12-14T22:52:40.852Z,102120.19
2018-12-14T22:55:13.231Z,102123.33
2018-12-14T22:57:52.817Z,102130.75
2018-12-14T23:00:25.338Z,102130.73
2018-12-14T23:02:54.925Z,102130.33
2018-12-14T23:05:28.792Z,102131.31
2018-12-14T23:08:08.924Z,102133.89
2018-12-14T23:10:47.723Z,102137.84
2018-12-14T23:13:20.190Z,102136.29
2018-12-14T23:15:52.297Z,102145.21
2018-12-14T23:18:31.128Z,102147.17
2018-12-14T23:21:02.338Z,102142.82
2018-12-14T23:23:32.178Z,102144.58
2018-12-14T23:26:06.097Z,102143.31
2018-12-14T23:28:45.004Z,102140.36
2018-12-14T23:40:00.105Z,102143.72
2018-12-14T23:42:38.830Z,102152.84
2018-12-14T23:45:11.169Z,102146.28
2018-12-14T23:47:49.680Z,102148.84
2018-12-14T23:50:27.678Z,102150.05
2018-12-14T23:53:05.381Z,102147.98
2018-12-14T23:55:44.466Z,102152.79
2018-12-14T23:58:18.587Z,102157.23
